Flight Track Log - Related Links

Times and Time Zones

All times are in EDT time to prevent confusion due to time zone crossing. See the KLM1596 flight status page for this flight to view local times or setup timezone preferences in your user account.

Time Position Orientation Groundspeed Altitude Reporting Facility
EDT Latitude Longitude Course Direction KTS MPH feet Rate Location/Type
Thu 12:32:00 AM 42.3915 11.9096 337° Northwest  Level Estimated
Thu 12:33:00 AM 42.4649 11.8666 337° Northwest  Level Estimated
Thu 12:34:00 AM 42.5381 11.8234 337° Northwest  Level Estimated
Thu 12:35:00 AM 42.6114 11.7801 337° Northwest  Level Estimated
Thu 12:36:00 AM 42.6901 11.7335 336° Northwest  Level Estimated
Thu 12:37:00 AM 42.7687 11.6868 336° Northwest  Level Estimated
Thu 12:38:00 AM 42.8473 11.6399 336° Northwest  Level Estimated
Thu 12:39:00 AM 42.9259 11.5930 336° Northwest  Level Estimated
Thu 12:40:00 AM 43.0045 11.5459 336° Northwest  Level Estimated
Thu 12:41:00 AM 43.0830 11.4987 336° Northwest  Level Estimated
Thu 12:42:00 AM 43.1615 11.4514 336° Northwest  Level Estimated
Thu 12:43:00 AM 43.2401 11.4040 336° Northwest  Level Estimated
Thu 12:44:00 AM 43.3186 11.3565 336° Northwest  Level Estimated
Thu 12:45:00 AM 43.3970 11.3088 336° Northwest  Level Estimated
Thu 12:46:00 AM 43.4755 11.2610 336° Northwest  Level Estimated
Thu 12:47:00 AM 43.5539 11.2131 336° Northwest  Level Estimated
Thu 12:48:00 AM 43.6323 11.1650 336° Northwest  Level Estimated
Thu 12:49:00 AM 43.7107 11.1168 336° Northwest  Level Estimated
Thu 12:50:00 AM 43.7891 11.0685 336° Northwest  Level Estimated
Thu 12:51:00 AM 43.8674 11.0201 336° Northwest  Level Estimated
Thu 12:52:00 AM 43.9458 10.9716 336° Northwest  Level Estimated
Thu 12:53:00 AM 44.0241 10.9229 336° Northwest  Level Estimated
Thu 12:54:00 AM 44.1023 10.8741 336° Northwest  Level Estimated
Thu 12:55:00 AM 44.1806 10.8251 336° Northwest  Level Estimated
Thu 12:56:00 AM 44.2589 10.7761 336° Northwest  Level Estimated
Thu 12:57:00 AM 44.3371 10.7269 336° Northwest  Level Estimated
Thu 12:58:00 AM 44.4153 10.6775 336° Northwest  Level Estimated
Thu 12:59:00 AM 44.4935 10.6281 336° Northwest  Level Estimated
Thu 01:00:00 AM 44.5717 10.5785 336° Northwest  Level Estimated
Thu 01:01:00 AM 44.6498 10.5287 336° Northwest  Level Estimated
Thu 01:02:00 AM 44.7279 10.4789 336° Northwest  Level Estimated
Thu 01:03:00 AM 44.8060 10.4289 336° Northwest  Level Estimated
Thu 01:04:00 AM 44.8841 10.3787 336° Northwest  Level Estimated
Thu 01:05:00 AM 44.9622 10.3285 336° Northwest  Level Estimated
Thu 01:06:00 AM 45.0402 10.2781 335° Northwest  Level Estimated
Thu 01:07:00 AM 45.1182 10.2275 335° Northwest  Level Estimated
Thu 01:08:00 AM 45.1962 10.1768 335° Northwest  Level Estimated
Thu 01:09:00 AM 45.2742 10.1260 335° Northwest  Level Estimated
Thu 01:10:00 AM 45.3521 10.0751 335° Northwest  Level Estimated
Thu 01:11:00 AM 45.4300 10.0240 335° Northwest  Level Estimated
Thu 01:12:00 AM 45.5079 9.9727 335° Northwest  Level Estimated
Thu 01:13:00 AM 45.5858 9.9213 335° Northwest  Level Estimated
Thu 01:14:00 AM 45.6637 9.8698 335° Northwest  Level Estimated
Thu 01:15:00 AM 45.7415 9.8181 335° Northwest  Level Estimated
Thu 01:16:00 AM 45.8193 9.7663 335° Northwest  Level Estimated
Thu 01:17:00 AM 45.8971 9.7143 335° Northwest  Level Estimated
Thu 01:18:00 AM 45.9748 9.6622 335° Northwest  Level Estimated
Thu 01:19:00 AM 46.0526 9.6100 335° Northwest  Level Estimated
Thu 01:20:00 AM 46.1303 9.5576 335° Northwest  Level Estimated
Thu 01:21:00 AM 46.2080 9.5050 335° Northwest  Level Estimated
Thu 01:22:00 AM 46.2856 9.4523 335° Northwest  Level Estimated
Thu 01:23:00 AM 46.3633 9.3995 335° Northwest  Level Estimated
Thu 01:24:00 AM 46.4409 9.3465 335° Northwest  Level Estimated
Thu 01:25:00 AM 46.5185 9.2933 335° Northwest  Level Estimated
Thu 01:26:00 AM 46.5961 9.2400 335° Northwest  Level Estimated
Thu 01:27:00 AM 46.6736 9.1866 335° Northwest  Level Estimated
Thu 01:28:00 AM 46.7511 9.1330 335° Northwest  Level Estimated
Thu 01:29:00 AM 46.8286 9.0792 335° Northwest  Level Estimated
Thu 01:30:00 AM 46.9061 9.0253 335° Northwest  Level Estimated
Thu 01:31:00 AM 46.9835 8.9712 335° Northwest  Level Estimated
Thu 01:32:00 AM 47.0609 8.9170 334° Northwest  Level Estimated
Thu 01:33:00 AM 47.1383 8.8626 334° Northwest  Level Estimated
Thu 01:34:00 AM 47.2157 8.8080 334° Northwest  Level Estimated
Thu 01:35:00 AM 47.2930 8.7533 334° Northwest  Level Estimated
Thu 01:36:00 AM 47.3703 8.6985 334° Northwest  Level Estimated
Thu 01:37:00 AM 47.4476 8.6434 334° Northwest  Level Estimated
Thu 01:38:00 AM 47.5249 8.5882 334° Northwest  Level Estimated
Thu 01:39:00 AM 47.6021 8.5329 334° Northwest  Level Estimated
Thu 01:40:00 AM 47.6793 8.4774 334° Northwest  Level Estimated
Thu 01:41:00 AM 47.7565 8.4217 334° Northwest  Level Estimated
Thu 01:42:00 AM 47.8336 8.3658 334° Northwest  Level Estimated
Thu 01:43:00 AM 47.9108 8.3098 334° Northwest  Level Estimated
Thu 01:44:00 AM 47.9879 8.2536 334° Northwest  Level Estimated
Thu 01:45:00 AM 48.0649 8.1973 334° Northwest  Level Estimated
Thu 01:46:00 AM 48.1420 8.1408 334° Northwest  Level Estimated
Thu 01:47:00 AM 48.2190 8.0841 334° Northwest  Level Estimated
Thu 01:48:00 AM 48.2960 8.0272 334° Northwest  Level Estimated
Thu 01:49:00 AM 48.3729 7.9702 334° Northwest  Level Estimated
Thu 01:50:00 AM 48.4498 7.9130 334° Northwest  Level Estimated
Thu 01:51:00 AM 48.5267 7.8556 334° Northwest  Level Estimated
Thu 01:52:00 AM 48.6036 7.7981 334° Northwest  Level Estimated
Thu 01:53:00 AM 48.6805 7.7404 334° Northwest  Level Estimated
Thu 01:54:00 AM 48.7573 7.6825 334° Northwest  Level Estimated
Thu 01:55:00 AM 48.8341 7.6244 334° Northwest  Level Estimated
Thu 01:56:00 AM 48.9108 7.5661 333° Northwest  Level Estimated
Thu 01:57:00 AM 48.9875 7.5077 333° Northwest  Level Estimated
Thu 01:58:00 AM 49.0643 7.4491 333° Northwest  Level Estimated
Thu 01:59:00 AM 49.1409 7.3903 333° Northwest  Level Estimated
Thu 02:00:00 AM 49.2176 7.3313 333° Northwest  Level Estimated
Thu 02:01:00 AM 49.2942 7.2721 333° Northwest  Level Estimated
Thu 02:02:00 AM 49.3708 7.2128 333° Northwest  Level Estimated
Thu 02:03:00 AM 49.4473 7.1532 333° Northwest  Level Estimated
Thu 02:04:00 AM 49.5238 7.0935 333° Northwest  Level Estimated
Thu 02:05:00 AM 49.6003 7.0336 333° Northwest  Level Estimated
Thu 02:06:00 AM 49.6768 6.9735 333° Northwest  Level Estimated
Thu 02:07:00 AM 49.7532 6.9132 333° Northwest  Level Estimated
Thu 02:08:00 AM 49.8296 6.8528 333° Northwest  Level Estimated
Thu 02:09:00 AM 49.9059 6.7921 333° Northwest  Level Estimated
Thu 02:10:00 AM 49.9823 6.7312 333° Northwest  Level Estimated
Thu 02:11:00 AM 50.0586 6.6702 333° Northwest  Level Estimated
Thu 02:12:00 AM 50.1348 6.6090 333° Northwest  Level Estimated
Thu 02:13:00 AM 50.2110 6.5475 333° Northwest  Level Estimated
Thu 02:14:00 AM 50.2873 6.4859 333° Northwest  Level Estimated
Thu 02:15:00 AM 50.3634 6.4240 333° Northwest  Level Estimated
Thu 02:16:00 AM 50.4395 6.3620 333° Northwest  Level Estimated
Thu 02:17:00 AM 50.5157 6.2998 333° Northwest  Level Estimated
Thu 02:18:00 AM 50.5917 6.2374 332° Northwest  Level Estimated
Thu 02:19:00 AM 50.6678 6.1747 332° Northwest  Level Estimated
Thu 02:20:00 AM 50.7438 6.1119 332° Northwest  Level Estimated
Thu 02:21:00 AM 50.8197 6.0488 332° Northwest  Level Estimated
Thu 02:22:00 AM 50.8956 5.9856 332° Northwest  Level Estimated
Thu 02:23:00 AM 50.9715 5.9221 332° Northwest  Level Estimated
Thu 02:24:00 AM 51.0474 5.8585 332° Northwest  Level Estimated
Thu 02:25:00 AM 51.1232 5.7946 332° Northwest  Level Estimated
Thu 02:26:00 AM 51.1990 5.7305 332° Northwest  Level Estimated
Thu 02:27:00 AM 51.2748 5.6662 332° Northwest  Level Estimated
Thu 02:28:00 AM 51.3505 5.6017 332° Northwest  Level Estimated
Thu 02:29:00 AM 51.4262 5.5370 332° Northwest  Level Estimated
Thu 02:30:00 AM 51.5019 5.4721 332° Northwest  Level Estimated
Thu 02:31:00 AM 51.5775 5.4069 332° Northwest  Level Estimated
Thu 02:32:00 AM 51.6530 5.3415 332° Northwest  Level Estimated
Thu 02:33:00 AM 51.7286 5.2760 332° Northwest  Level Estimated
Thu 02:34:00 AM 51.8041 5.2102 332° Northwest  Level Estimated
Thu 02:35:00 AM 51.8796 5.1441 332° Northwest  Level Estimated
Thu 02:36:00 AM 51.9550 5.0779 332° Northwest  Level Estimated
Thu 02:37:00 AM 52.0304 5.0114 332° Northwest  Level Estimated
Thu 02:38:00 AM 52.1058 4.9447 331° Northwest  Level Estimated
Thu 02:39:00 AM 52.1811 4.8778 331° Northwest  Level Estimated
Thu 02:40:00 AM 52.2564 4.8106 331° Northwest  Level Estimated
Thu 02:41:00 AM 52.3086 4.7639 331° Northwest  Level Estimated
Thu 02:42:00 AM 52.3086 4.7639 348° North  Level Estimated
Thu 02:43:00 AM 52.3086 4.7639 348° North  Level Estimated
Thu 02:44:00 AM 52.3086 4.7639 348° North  Level Estimated
Thu 02:45:00 AM 52.3086 4.7639 348° North  Level Estimated
Thu 02:46:00 AM 52.3086 4.7639 348° North  Level Estimated
Thu 02:47:00 AM 52.3086 4.7639 348° North  Level Estimated
Thu 02:48:00 AM 52.3086 4.7639 348° North  Level Estimated
Thu 02:49:00 AM 52.3086 4.7639 348° North  Level Estimated
Thu 02:50:00 AM 52.3086 4.7639 348° North  Level Estimated
Thu 02:51:00 AM 52.3086 4.7639 348° North  Level Estimated
Thu 02:52:00 AM 52.3086 4.7639 348° North  Level Estimated
Thu 02:53:00 AM 52.3086 4.7639 348° North  Level Estimated
Thu 02:54:00 AM 52.3086 4.7639 348° North  Level Estimated
Thu 02:55:00 AM 52.3086 4.7639 348° North  Level Estimated
Thu 02:56:00 AM 52.3086 4.7639 348° North  Level Estimated

Login

Don't have an account? Register now (free) for customized features, flight alerts, and more!